• Join FlightAware (Why Join?)
  • Login
  • US Flag 
Rudolph Flight #1: Arrived! 
01:47AM EST


 

Airport Tracker/Info


-or-


 

Live Flight TrackerFlight Track Log ✈ CTA400 ✈ 14-Jun-2013 ✈ KLBB - KAMA

Flight Track Log - Related Links

Times and Time Zones

All times are in EDT time to prevent confusion due to time zone crossing. See the CTA400 flight status page for this flight to view local times or setup timezone preferences in your user account.

Time Position Orientation Groundspeed Altitude Reporting Facility
EDT Latitude Longitude Course Direction KTS MPH feet Rate Location/Type
10:21AM 33.6806 -101.7567 360° North 169 194 4,800  Level Fort Worth Center
10:22AM 33.7286 -101.7564 360° North 168 193 6,100 840 Climbing Fort Worth Center
10:23AM 33.7767 -101.7564 360° North 178 205 6,700 240 Climbing Fort Worth Center
10:24AM 33.8369 -101.7594 358° North 219 252 6,700  Level Fort Worth Center
10:25AM 33.9014 -101.7650 356° North 223 257 6,700  Level Fort Worth Center
10:26AM 33.9639 -101.7681 358° North 219 252 6,700  Level Fort Worth Center
10:27AM 34.0225 -101.7611 North 219 252 6,700 -60 Level Fort Worth Center
10:28AM 34.0728 -101.7586 North 227 261 6,600 -60 Descending Fort Worth Center
10:29AM 34.1336 -101.7517 North 233 268 6,600  Level Fort Worth Center
10:30AM 34.1961 -101.7547 358° North 223 257 6,600  Level Fort Worth Center
10:31AM 34.2567 -101.7528 North 218 251 6,600  Level Fort Worth Center
10:32AM 34.3172 -101.7458 North 218 251 6,600  Level Fort Worth Center
10:33AM 34.3761 -101.7386 North 218 251 6,600  Level Fort Worth Center
10:34AM 34.4261 -101.7333 North 217 250 6,700  Climbing Albuquerque Center
10:35AM 34.4872 -101.7272 North 218 251 6,600 -60 Descending Albuquerque Center
10:36AM 34.5461 -101.7203 North 216 249 6,600 -60 Level Albuquerque Center
10:37AM 34.6069 -101.7156 North 217 250 6,500  Descending Albuquerque Center
10:38AM 34.6811 -101.7139 North 219 252 6,600  Climbing Albuquerque Center
10:39AM 34.7417 -101.7111 North 219 252 6,500  Descending Albuquerque Center
10:40AM 34.8025 -101.7106 360° North 219 252 6,600  Climbing Albuquerque Center
10:41AM 34.8631 -101.7072 North 218 251 6,500  Descending Albuquerque Center
10:42AM 34.9225 -101.7036 North 217 250 6,600  Climbing Albuquerque Center
10:43AM 34.9831 -101.6983 North 217 250 6,600 -420 Level Albuquerque Center
10:44AM 35.0567 -101.6872 North 220 253 5,800 -600 Descending Albuquerque Center
10:45AM 35.1194 -101.6828 North 223 257 5,400 -420 Descending Albuquerque Center
10:46AM 35.1758 -101.6750 North 218 251 5,000 -420 Descending Albuquerque Center
10:47AM 35.2153 -101.6414 35° Northeast 194 223 4,600 -480 Descending Albuquerque Center
10:48AM 35.2469 -101.6783 316° Northwest 162 186 4,100 -540 Descending Albuquerque Center
10:49AM 35.2239 -101.7094 228° Southwest 136 157 3,600 -540 Descending Albuquerque Center